Marble Falls, TX

6:07 PM CDT on April 26, 2015 (GMT -0500)
The Waterlands | | Change Station
CLOSE
Current Station
Personal Weather Station
Location: Horseshoe Bay, TX
Elevation: 837 ft
Nearby Weather Stations

Elev 837 ft 30.55 °N, 98.35 °W | Updated 11 seconds ago

Scattered Clouds
Scattered Clouds
85.8 °F
Feels Like 88 °F
N
2.9
Wind Variable Wind from ENE
Gusts 5.0 mph

Today
High -- | Low -- °F
--% Chance of Precip.
Yesterday
High -- | Low -- °F
Precip. -- in
6:54 AM 8:08 PM
First Quarter, 59% visible
Pressure 29.55 in
Visibility 10.0 miles
Clouds Scattered Clouds 4000 ft
Heat Index 88 °F
Dew Point 66 °F
Humidity 52%
Rainfall 0.00 in
Snow Depth Not available.
UV 2 out of 12
Pollen 8.20 out of 12
Air Quality Not available.
Flu Activity Local Activity
METAR KDZB 262255Z AUTO 16008G16KT 10SM SCT040 29/20 A2955 RMK AO2 T02900198

More Conditions Fewer Conditions

Pressure 29.55 in
Visibility 10.0 miles
Clouds Scattered Clouds 4000 ft
Heat Index 88 °F
Dew Point 66 °F
Humidity 52%
Rainfall 0.00 in
Snow Depth Not available.
UV 2 out of 12
Pollen 8.20 out of 12
Air Quality Not available.
Flu Activity Local Activity
METAR KDZB 262255Z AUTO 16008G16KT 10SM SCT040 29/20 A2955 RMK AO2 T02900198

More Conditions Fewer Conditions

The full scope of the disaster following a powerful 7.8-magnitude earthquake in Nepal may not come into view for days, but global charities are already sending emergency aid. Click to see how you can help.
Nowcast | as of 6:02 PM CDT on April 26, 2015

Through 9 PM CDT...isolated showers and thunderstorms will remain possible mainly north and east of a line from Rocksprings to Johnson City to Cuero. By late this evening...increased focus for thunderstorms will develop over the Northwest Hill country...then expand south and east across much of south central Texas during the overnight hours. Some storms will be severe with large hail and damaging winds possible.

×

10-Day Weather Forecast

Almanac

Astronomy

Apr. 26, 2015 Rise Set
Actual Time
Civil Twilight
Nautical Twilight
Astronomical Twilight
Moon
Length of Visible Light
Length of Day
Tomorrow will be .
, % of the Moon is Illuminated

Today's Extremes

State Highs State Lows

Community

WunderPhotos

Upload Photos

1,817,154 photos uploaded!

WunderBlogs® & News

Nearby

Air Quality

  Air Quality AQ Index Pollutant
Not available.

Snow Depth

Station Depth Elevation

Earthquake Activity

City Distance Mag. Time & Date
Minimum magnitude displayed is 2.5.

Coastal Water Temperatures

Place Temperature

Stations

Nearby Weather Stations

Station Location Temp. Windchill Dew Point Humidity Wind Precip. Elev Updated Type